createdAt,value
2022-12-08T00:01:32.232Z,10.37
2022-12-08T00:04:05.977Z,9.63
2022-12-08T00:07:01.528Z,10.93
2022-12-08T00:09:38.567Z,11.40
2022-12-08T00:12:18.256Z,12.57
2022-12-08T00:14:47.932Z,11.67
2022-12-08T00:17:19.200Z,12.10
2022-12-08T01:31:36.167Z,18.63
2022-12-08T01:34:03.276Z,27.85
2022-12-08T01:36:37.441Z,23.60
2022-12-08T01:39:11.472Z,22.40
2022-12-08T01:41:39.718Z,23.37
2022-12-08T01:44:13.997Z,22.53
2022-12-08T01:46:49.085Z,22.73
2022-12-08T01:49:35.951Z,21.47
2022-12-08T01:52:17.334Z,23.37
2022-12-08T01:54:52.884Z,21.90
2022-12-08T01:57:29.838Z,22.07
2022-12-08T02:00:10.349Z,21.13
2022-12-08T02:03:09.643Z,19.83
2022-12-08T02:05:39.389Z,20.50
2022-12-08T02:08:11.702Z,21.63
2022-12-08T02:10:41.643Z,21.27
2022-12-08T02:13:15.496Z,20.50
2022-12-08T02:15:58.304Z,20.70
2022-12-08T02:18:57.660Z,20.40
2022-12-08T02:21:42.250Z,19.97
2022-12-08T02:24:22.568Z,19.97
2022-12-08T02:27:14.214Z,19.33
2022-12-08T02:30:08.763Z,18.90
2022-12-08T02:32:57.724Z,17.67
2022-12-08T02:35:48.512Z,18.63
2022-12-08T02:38:44.088Z,19.93
2022-12-08T02:42:10.909Z,18.67
2022-12-08T02:45:07.207Z,19.47
2022-12-08T02:47:35.792Z,19.70
2022-12-08T02:50:04.039Z,17.37
2022-12-08T02:52:31.840Z,20.23
2022-12-08T02:55:06.973Z,18.60
2022-12-08T02:57:53.987Z,21.03
2022-12-08T03:00:23.703Z,20.50
2022-12-08T03:03:03.387Z,21.90
2022-12-08T03:05:55.181Z,21.43
2022-12-08T03:08:39.887Z,22.00
2022-12-08T03:11:12.068Z,21.60
2022-12-08T03:13:45.586Z,21.27
2022-12-08T03:16:21.413Z,20.60
2022-12-08T03:18:53.527Z,21.17
2022-12-08T03:21:23.731Z,20.83
2022-12-08T03:23:53.186Z,21.17
2022-12-08T03:26:41.499Z,21.10
2022-12-08T03:29:09.903Z,21.70
2022-12-08T03:31:44.572Z,20.03
2022-12-08T03:34:14.568Z,19.90
2022-12-08T03:36:42.275Z,19.50
2022-12-08T03:39:09.537Z,20.23
2022-12-08T03:41:37.017Z,19.80
2022-12-08T03:44:04.700Z,19.20
2022-12-08T03:46:32.322Z,18.20
2022-12-08T03:48:59.641Z,18.57
2022-12-08T03:51:27.542Z,18.17
2022-12-08T03:53:54.639Z,18.30
2022-12-08T03:56:29.286Z,18.80
2022-12-08T03:58:56.597Z,15.87
2022-12-08T04:01:24.839Z,16.87
2022-12-08T04:03:52.715Z,15.70
2022-12-08T04:06:21.674Z,16.63
2022-12-08T04:08:49.877Z,15.50
2022-12-08T04:11:17.588Z,16.37
2022-12-08T04:13:45.363Z,16.03
2022-12-08T04:16:21.410Z,15.57
2022-12-08T04:18:49.130Z,16.87
2022-12-08T04:21:16.442Z,16.17
2022-12-08T04:23:44.190Z,15.60
2022-12-08T04:26:11.304Z,16.97
2022-12-08T04:28:38.622Z,15.03
2022-12-08T04:31:06.532Z,19.73
2022-12-08T04:33:35.619Z,20.10
2022-12-08T04:36:04.218Z,20.67
2022-12-08T05:10:38.045Z,13.40
2022-12-08T05:13:06.100Z,14.60
2022-12-08T05:15:33.504Z,14.10
2022-12-08T05:18:00.532Z,15.30
2022-12-08T05:20:29.077Z,15.77
2022-12-08T05:22:55.992Z,15.80
2022-12-08T05:25:22.942Z,15.00
2022-12-08T05:27:50.377Z,14.80
2022-12-08T05:30:17.339Z,15.20
2022-12-08T05:32:44.416Z,13.77
2022-12-08T05:35:11.369Z,14.43
2022-12-08T05:37:38.373Z,13.33
2022-12-08T05:40:06.539Z,13.80
2022-12-08T05:42:33.773Z,13.27
2022-12-08T05:45:00.876Z,12.57
2022-12-08T05:47:30.741Z,12.73
2022-12-08T05:50:01.661Z,12.73
2022-12-08T05:52:29.987Z,12.73
2022-12-08T05:54:56.960Z,12.50
2022-12-08T05:57:23.944Z,12.70
2022-12-08T05:59:50.844Z,11.90
2022-12-08T06:02:18.033Z,12.77
2022-12-08T06:04:45.665Z,13.20
2022-12-08T06:07:16.061Z,13.60
2022-12-08T06:09:43.761Z,13.27
2022-12-08T06:12:13.625Z,14.30
2022-12-08T06:14:40.809Z,13.53
2022-12-08T06:17:08.315Z,14.47
2022-12-08T06:19:35.206Z,14.87
2022-12-08T06:22:02.129Z,13.70
2022-12-08T06:24:29.372Z,15.00
2022-12-08T06:26:56.407Z,14.13
2022-12-08T06:29:23.433Z,13.87
2022-12-08T06:31:50.467Z,15.03
2022-12-08T06:34:17.553Z,15.20
2022-12-08T06:36:44.368Z,15.80
2022-12-08T06:39:11.376Z,14.00
2022-12-08T06:41:58.161Z,14.27
2022-12-08T06:44:25.265Z,15.47
2022-12-08T06:46:52.072Z,15.27
2022-12-08T06:49:18.980Z,15.20
2022-12-08T06:51:46.140Z,16.00
2022-12-08T06:54:13.011Z,14.70
2022-12-08T06:56:39.981Z,14.23
2022-12-08T07:01:34.764Z,14.37
2022-12-08T07:04:01.669Z,15.30
2022-12-08T07:06:28.683Z,15.00
2022-12-08T07:08:55.558Z,15.33
2022-12-08T07:11:22.915Z,14.83
2022-12-08T07:13:50.368Z,14.20
2022-12-08T07:16:17.268Z,14.50
2022-12-08T07:18:44.259Z,14.53
2022-12-08T07:21:13.333Z,13.77
2022-12-08T07:23:40.325Z,13.87
2022-12-08T07:26:10.375Z,13.40
2022-12-08T07:28:38.918Z,13.50
2022-12-08T07:31:07.067Z,13.80
2022-12-08T07:33:36.311Z,13.03
2022-12-08T07:36:06.017Z,12.50
2022-12-08T07:38:33.279Z,12.90
2022-12-08T07:41:00.453Z,12.60
2022-12-08T07:43:27.406Z,12.47
2022-12-08T07:45:54.507Z,11.53
2022-12-08T07:48:21.597Z,11.73
2022-12-08T07:50:48.750Z,11.83
2022-12-08T07:53:15.676Z,12.17
2022-12-08T07:55:43.492Z,11.57
2022-12-08T07:58:11.684Z,11.07
2022-12-08T08:00:38.909Z,12.23
2022-12-08T08:03:06.360Z,12.33
2022-12-08T08:05:33.352Z,11.00
2022-12-08T08:08:00.350Z,11.70
2022-12-08T08:10:27.476Z,11.50
2022-12-08T08:12:54.799Z,10.87
2022-12-08T08:15:22.073Z,11.93
2022-12-08T08:17:52.141Z,11.30
2022-12-08T08:20:20.065Z,11.50
2022-12-08T08:22:48.115Z,10.90
2022-12-08T08:25:15.690Z,12.13
2022-12-08T08:27:43.370Z,10.30
2022-12-08T08:30:18.183Z,10.23
2022-12-08T08:32:47.312Z,10.93
2022-12-08T08:35:14.313Z,9.77
2022-12-08T08:37:44.367Z,12.52
2022-12-08T08:40:15.665Z,10.87
2022-12-08T08:42:42.560Z,9.93
2022-12-08T08:45:09.919Z,9.87
2022-12-08T08:47:36.813Z,10.00
2022-12-08T08:50:04.763Z,10.30
2022-12-08T08:52:31.945Z,9.10
2022-12-08T08:54:58.841Z,9.30
2022-12-08T08:57:26.293Z,9.27
2022-12-08T08:59:54.046Z,12.02
2022-12-08T09:02:22.510Z,10.03
2022-12-08T09:04:49.510Z,9.23
2022-12-08T09:07:16.652Z,9.90
2022-12-08T09:09:43.844Z,9.60
2022-12-08T09:12:11.331Z,9.60
2022-12-08T09:14:38.334Z,10.53
2022-12-08T09:17:06.258Z,9.50
2022-12-08T09:19:33.407Z,9.27
2022-12-08T09:22:00.357Z,8.77
2022-12-08T09:24:27.442Z,8.73
2022-12-08T09:26:54.339Z,9.27
2022-12-08T09:29:21.220Z,8.03
2022-12-08T09:36:41.802Z,7.67
2022-12-08T09:39:09.113Z,8.10
2022-12-08T09:41:43.349Z,7.63
2022-12-08T09:44:38.633Z,7.30
2022-12-08T09:47:21.605Z,7.37
2022-12-08T09:50:01.351Z,7.13
2022-12-08T09:52:33.677Z,6.70
2022-12-08T09:55:09.806Z,7.20
2022-12-08T09:57:36.969Z,6.67
2022-12-08T10:00:07.370Z,6.50
2022-12-08T10:02:34.591Z,6.67
2022-12-08T10:05:01.621Z,7.47
2022-12-08T10:07:39.514Z,7.43
2022-12-08T10:10:06.619Z,7.47
2022-12-08T10:12:47.945Z,7.80
2022-12-08T10:15:23.553Z,7.40
2022-12-08T10:17:52.872Z,6.20
2022-12-08T10:20:23.578Z,7.07
2022-12-08T10:23:07.440Z,7.20
2022-12-08T10:25:39.924Z,6.37
2022-12-08T10:28:08.859Z,6.20
2022-12-08T10:30:35.771Z,6.70
2022-12-08T10:33:02.715Z,6.37
2022-12-08T10:35:49.714Z,6.87
2022-12-08T10:38:36.999Z,5.37
2022-12-08T10:41:06.871Z,5.37
2022-12-08T10:43:34.365Z,6.13
2022-12-08T10:46:13.364Z,5.63
2022-12-08T10:48:52.010Z,5.80
2022-12-08T10:51:41.151Z,5.63
2022-12-08T10:54:33.215Z,6.23
2022-12-08T10:57:00.237Z,6.23
2022-12-08T10:59:27.347Z,6.40
2022-12-08T11:01:56.682Z,5.10
2022-12-08T11:04:36.888Z,6.00
2022-12-08T11:07:06.467Z,5.67
2022-12-08T11:09:37.058Z,5.90
2022-12-08T11:12:09.849Z,5.60
2022-12-08T11:14:43.604Z,5.57
2022-12-08T11:17:22.084Z,5.83
2022-12-08T11:20:18.510Z,5.57
2022-12-08T11:22:50.819Z,5.30
2022-12-08T11:25:27.859Z,5.40
2022-12-08T11:27:58.578Z,5.73
2022-12-08T11:30:40.890Z,5.53
2022-12-08T11:33:23.659Z,5.73
2022-12-08T11:36:12.546Z,6.00
2022-12-08T11:38:46.086Z,6.40
2022-12-08T11:41:18.036Z,6.10
2022-12-08T11:43:48.387Z,5.80
2022-12-08T11:46:32.538Z,7.00
2022-12-08T11:49:07.234Z,7.27
2022-12-08T11:52:05.908Z,6.73
2022-12-08T11:54:45.164Z,7.00
2022-12-08T11:57:16.685Z,7.40
2022-12-08T11:59:46.568Z,7.30
2022-12-08T12:02:21.724Z,7.50
2022-12-08T12:05:02.861Z,6.50
2022-12-08T12:07:51.220Z,6.27
2022-12-08T12:10:46.002Z,5.40
2022-12-08T12:13:37.545Z,6.43
2022-12-08T12:16:13.299Z,5.57
2022-12-08T12:18:47.057Z,5.33
2022-12-08T12:21:26.327Z,4.73
2022-12-08T12:24:07.985Z,4.63
2022-12-08T12:26:50.403Z,5.30
2022-12-08T12:29:20.985Z,4.40
2022-12-08T12:31:53.411Z,4.60
2022-12-08T12:34:27.254Z,4.97
2022-12-08T12:37:35.945Z,4.30
2022-12-08T12:40:12.859Z,4.73
2022-12-08T12:42:51.567Z,4.43
2022-12-08T12:45:18.409Z,4.40
2022-12-08T12:47:56.959Z,4.20
2022-12-08T12:50:47.856Z,4.50
2022-12-08T12:53:18.140Z,4.33
2022-12-08T12:55:57.290Z,5.47
2022-12-08T12:58:29.918Z,4.93
2022-12-08T13:01:12.184Z,4.17
2022-12-08T13:03:57.624Z,4.87
2022-12-08T13:06:35.236Z,4.23
2022-12-08T13:09:02.122Z,4.37
2022-12-08T13:11:29.108Z,4.60
2022-12-08T13:14:03.283Z,4.90
2022-12-08T13:16:39.593Z,4.93
2022-12-08T13:19:15.276Z,5.30
2022-12-08T13:21:42.404Z,4.83
2022-12-08T13:24:13.079Z,4.40
2022-12-08T13:27:18.966Z,4.67
2022-12-08T13:30:38.195Z,4.43
2022-12-08T13:33:17.666Z,4.60
2022-12-08T13:35:55.216Z,4.13
2022-12-08T13:38:26.766Z,4.53
2022-12-08T13:40:55.886Z,9.20
2022-12-08T13:44:02.127Z,4.37
2022-12-08T13:58:49.795Z,6.43
2022-12-08T14:01:23.508Z,4.90
2022-12-08T14:04:33.812Z,4.97
2022-12-08T14:06:49.249Z,5.53
2022-12-08T14:09:20.967Z,5.63
2022-12-08T14:11:59.395Z,7.23
2022-12-08T14:17:28.117Z,6.00
2022-12-08T14:20:01.152Z,5.30
2022-12-08T14:22:36.710Z,3.97
2022-12-08T14:25:05.604Z,4.53
2022-12-08T14:27:35.181Z,6.23
2022-12-08T14:30:14.450Z,5.93
2022-12-08T14:32:56.285Z,6.50
2022-12-08T14:35:32.030Z,6.03
2022-12-08T14:38:01.618Z,5.10
2022-12-08T14:40:36.534Z,4.77
2022-12-08T14:43:09.423Z,5.20
2022-12-08T14:45:39.444Z,4.70
2022-12-08T14:48:30.902Z,4.90
2022-12-08T14:51:09.290Z,5.60
2022-12-08T14:53:40.455Z,5.90
2022-12-08T14:56:33.213Z,5.50
2022-12-08T14:59:05.639Z,4.97
2022-12-08T15:01:33.488Z,6.50
2022-12-08T15:04:15.742Z,7.33
2022-12-08T15:07:07.102Z,6.77
2022-12-08T15:09:41.023Z,7.40
2022-12-08T15:12:26.646Z,6.60
2022-12-08T15:15:16.547Z,6.93
2022-12-08T15:17:51.877Z,6.87
2022-12-08T15:20:41.973Z,7.97
2022-12-08T15:23:31.245Z,8.97
2022-12-08T15:25:58.991Z,8.73
2022-12-08T15:28:30.236Z,9.07
2022-12-08T15:30:57.804Z,12.73
2022-12-08T15:35:51.903Z,11.47
2022-12-08T15:38:29.644Z,12.90
2022-12-08T15:40:58.905Z,15.33
2022-12-08T15:43:26.331Z,18.13
2022-12-08T15:45:59.696Z,22.27
2022-12-08T15:48:29.608Z,15.17
2022-12-08T15:50:57.069Z,17.63
2022-12-08T15:58:55.196Z,18.70
2022-12-08T16:01:23.044Z,18.13
2022-12-08T16:07:19.658Z,19.03
2022-12-08T16:09:42.266Z,18.13
2022-12-08T16:15:52.985Z,12.67
2022-12-08T16:18:26.859Z,12.57
2022-12-08T16:23:43.699Z,12.40
2022-12-08T16:26:31.819Z,11.20
2022-12-08T16:29:03.445Z,11.17
2022-12-08T16:31:30.435Z,12.63
2022-12-08T16:33:57.331Z,11.87
2022-12-08T16:36:24.141Z,12.27
2022-12-08T16:38:51.102Z,14.90
2022-12-08T16:41:37.141Z,18.57
2022-12-08T17:04:07.093Z,26.43
2022-12-08T17:06:32.819Z,19.03
2022-12-08T17:08:59.920Z,21.00
2022-12-08T17:11:28.651Z,26.75
2022-12-08T17:13:55.642Z,26.55
2022-12-08T17:16:22.770Z,24.57
2022-12-08T17:18:49.758Z,30.70
2022-12-08T17:21:18.302Z,37.27
2022-12-08T17:23:45.895Z,32.83
2022-12-08T17:26:13.828Z,27.87
2022-12-08T17:28:59.916Z,20.13
2022-12-08T17:31:30.122Z,29.60
2022-12-08T17:34:05.770Z,14.73
2022-12-08T17:36:32.952Z,18.10
2022-12-08T17:39:01.249Z,18.43
2022-12-08T17:41:28.992Z,16.03
2022-12-08T17:43:56.144Z,16.50
2022-12-08T17:46:24.003Z,16.47
2022-12-08T17:48:50.902Z,17.87
2022-12-08T17:51:17.985Z,20.83
2022-12-08T17:53:45.016Z,21.37
2022-12-08T17:56:21.020Z,25.47
2022-12-08T17:58:52.881Z,21.97
2022-12-08T18:01:22.581Z,17.70
2022-12-08T18:03:49.784Z,14.53
2022-12-08T18:06:17.699Z,15.80
2022-12-08T18:08:45.035Z,15.87
2022-12-08T18:11:17.037Z,15.17
2022-12-08T18:13:44.765Z,15.07
2022-12-08T18:16:12.398Z,15.33
2022-12-08T18:18:39.636Z,17.00
2022-12-08T18:21:07.184Z,18.97
2022-12-08T18:23:36.694Z,31.93
2022-12-08T18:28:31.422Z,21.17
2022-12-08T18:30:58.350Z,20.93
2022-12-08T18:33:25.519Z,23.70
2022-12-08T18:35:52.378Z,22.73
2022-12-08T18:38:19.565Z,23.03
2022-12-08T18:40:46.638Z,22.80
2022-12-08T18:43:13.541Z,24.93
2022-12-08T18:45:40.352Z,32.88
2022-12-08T18:48:07.377Z,32.10
2022-12-08T18:50:34.527Z,34.03
2022-12-08T18:53:01.439Z,32.37
2022-12-08T19:00:25.085Z,33.92
2022-12-08T19:02:52.112Z,31.30
2022-12-08T19:05:19.083Z,34.38
2022-12-08T19:07:46.585Z,24.10
2022-12-08T19:15:08.138Z,25.50
2022-12-08T19:17:35.249Z,24.48
2022-12-08T19:20:02.282Z,23.97
2022-12-08T19:22:29.102Z,21.27
2022-12-08T19:27:23.370Z,32.73
2022-12-08T19:29:50.356Z,30.30
2022-12-08T19:32:17.365Z,25.90
2022-12-08T19:34:44.378Z,30.67
2022-12-08T19:37:12.722Z,30.77
2022-12-08T19:39:58.878Z,33.60
2022-12-08T19:42:44.539Z,30.60
2022-12-08T19:45:19.999Z,22.70
2022-12-08T19:47:47.202Z,21.63
2022-12-08T19:50:34.670Z,27.25
2022-12-08T19:53:12.546Z,20.10
2022-12-08T19:55:40.402Z,19.40
2022-12-08T20:07:57.770Z,19.10
2022-12-08T20:10:32.217Z,23.10
2022-12-08T20:13:18.111Z,38.43
2022-12-08T20:15:45.587Z,32.13
2022-12-08T20:18:14.318Z,26.13
2022-12-08T20:20:43.274Z,25.67
2022-12-08T20:23:10.863Z,27.33
2022-12-08T20:25:39.849Z,28.93
2022-12-08T20:28:07.045Z,34.60
2022-12-08T20:30:34.175Z,38.60
2022-12-08T20:33:01.203Z,43.33
2022-12-08T20:35:28.155Z,33.90
2022-12-08T20:37:55.019Z,33.17
2022-12-08T20:40:21.937Z,46.17
2022-12-08T20:42:49.304Z,37.70
2022-12-08T20:45:16.373Z,28.20
2022-12-08T20:47:43.210Z,31.50
2022-12-08T20:50:10.946Z,32.77
2022-12-08T20:52:38.050Z,35.30
2022-12-08T20:55:06.550Z,32.73
2022-12-08T20:57:33.838Z,32.10
2022-12-08T21:00:01.014Z,29.47
2022-12-08T21:02:28.204Z,29.30
2022-12-08T21:04:55.341Z,27.83
2022-12-08T21:07:22.477Z,25.47
2022-12-08T21:09:49.931Z,28.43
2022-12-08T21:12:17.016Z,35.10
2022-12-08T21:14:43.916Z,37.47
2022-12-08T21:17:11.121Z,33.17
2022-12-08T21:19:38.297Z,28.97
2022-12-08T21:22:05.333Z,30.77
2022-12-08T21:24:34.740Z,27.37
2022-12-08T21:27:02.003Z,25.37
2022-12-08T21:29:29.238Z,23.83
2022-12-08T21:32:00.436Z,23.20
2022-12-08T21:34:34.628Z,21.37
2022-12-08T21:37:02.173Z,21.63
2022-12-08T21:39:29.166Z,22.97
2022-12-08T21:42:14.630Z,26.33
2022-12-08T21:44:41.738Z,28.03
2022-12-08T21:47:08.847Z,28.10
2022-12-08T21:49:35.736Z,25.60
2022-12-08T21:52:02.656Z,26.30
2022-12-08T21:54:29.643Z,35.70
2022-12-08T21:56:56.569Z,32.33
2022-12-08T21:59:23.616Z,34.17
2022-12-08T22:01:50.911Z,28.93
2022-12-08T22:04:21.195Z,26.30
2022-12-08T22:06:49.067Z,22.90
2022-12-08T22:09:16.344Z,23.83
2022-12-08T22:11:43.969Z,23.30
2022-12-08T22:14:14.793Z,22.87
2022-12-08T22:16:43.011Z,23.60
2022-12-08T22:19:10.221Z,22.20
2022-12-08T22:21:38.218Z,22.33
2022-12-08T22:24:05.763Z,23.40
2022-12-08T22:26:32.761Z,23.40
2022-12-08T22:29:00.529Z,23.33
2022-12-08T22:31:27.814Z,22.03
2022-12-08T22:33:55.061Z,22.73
2022-12-08T22:36:26.611Z,23.60
2022-12-08T22:38:54.715Z,23.33
2022-12-08T22:41:22.307Z,23.20
2022-12-08T22:43:50.337Z,24.63
2022-12-08T22:46:18.663Z,22.77
2022-12-08T22:48:46.530Z,23.83
2022-12-08T22:51:14.407Z,22.17
2022-12-08T22:53:41.985Z,22.87
2022-12-08T22:56:11.031Z,21.60
2022-12-08T22:58:39.945Z,23.27
2022-12-08T23:01:07.556Z,23.00
2022-12-08T23:03:34.948Z,25.27
2022-12-08T23:06:02.531Z,23.10
2022-12-08T23:08:29.728Z,24.20
2022-12-08T23:10:57.994Z,24.70
2022-12-08T23:13:24.991Z,23.03
2022-12-08T23:15:51.913Z,22.50
2022-12-08T23:18:19.309Z,21.73
2022-12-08T23:20:47.211Z,22.40
2022-12-08T23:23:14.771Z,24.47
2022-12-08T23:25:43.098Z,23.67
2022-12-08T23:28:11.223Z,24.53
2022-12-08T23:30:41.882Z,24.47
2022-12-08T23:33:09.112Z,23.80
2022-12-08T23:35:36.344Z,23.00
2022-12-08T23:38:03.691Z,23.57
2022-12-08T23:40:30.877Z,22.67
2022-12-08T23:42:57.890Z,23.27
2022-12-08T23:45:24.788Z,23.70
2022-12-08T23:47:51.915Z,23.07
2022-12-08T23:50:19.179Z,23.93
2022-12-08T23:52:46.031Z,24.13
2022-12-08T23:55:13.082Z,23.13
2022-12-08T23:57:40.069Z,25.10
